sensor_id;sensor_type;location;lat;lon;timestamp;P1;durP1;ratioP1;P2;durP2;ratioP2
12660;SDS011;39039;51.802;5.710;2023-05-07T00:02:10;35.67;;;33.07;;
12660;SDS011;39039;51.802;5.710;2023-05-07T00:04:37;33.70;;;31.23;;
12660;SDS011;39039;51.802;5.710;2023-05-07T00:07:04;33.63;;;31.27;;
12660;SDS011;39039;51.802;5.710;2023-05-07T00:09:31;35.87;;;33.40;;
12660;SDS011;39039;51.802;5.710;2023-05-07T00:11:58;32.83;;;30.37;;
12660;SDS011;39039;51.802;5.710;2023-05-07T00:14:27;30.10;;;28.03;;
12660;SDS011;39039;51.802;5.710;2023-05-07T00:16:54;29.53;;;27.47;;
12660;SDS011;39039;51.802;5.710;2023-05-07T00:19:21;35.73;;;32.70;;
12660;SDS011;39039;51.802;5.710;2023-05-07T00:21:48;32.27;;;30.07;;
12660;SDS011;39039;51.802;5.710;2023-05-07T00:24:18;31.90;;;29.77;;
12660;SDS011;39039;51.802;5.710;2023-05-07T00:26:45;35.33;;;32.37;;
12660;SDS011;39039;51.802;5.710;2023-05-07T00:29:12;31.63;;;29.10;;
12660;SDS011;39039;51.802;5.710;2023-05-07T00:31:41;38.13;;;34.97;;
12660;SDS011;39039;51.802;5.710;2023-05-07T00:34:07;28.87;;;26.87;;
12660;SDS011;39039;51.802;5.710;2023-05-07T00:36:34;32.63;;;30.37;;
12660;SDS011;39039;51.802;5.710;2023-05-07T00:39:02;27.53;;;25.47;;
12660;SDS011;39039;51.802;5.710;2023-05-07T00:41:29;30.80;;;28.43;;
12660;SDS011;39039;51.802;5.710;2023-05-07T00:43:56;28.27;;;26.37;;
12660;SDS011;39039;51.802;5.710;2023-05-07T00:46:24;32.07;;;29.90;;
12660;SDS011;39039;51.802;5.710;2023-05-07T00:48:52;35.23;;;32.27;;
12660;SDS011;39039;51.802;5.710;2023-05-07T00:51:20;32.50;;;30.17;;
12660;SDS011;39039;51.802;5.710;2023-05-07T00:53:47;28.00;;;25.93;;
12660;SDS011;39039;51.802;5.710;2023-05-07T00:56:14;34.87;;;32.27;;
12660;SDS011;39039;51.802;5.710;2023-05-07T00:58:41;30.57;;;28.47;;
12660;SDS011;39039;51.802;5.710;2023-05-07T01:01:08;33.07;;;30.93;;
12660;SDS011;39039;51.802;5.710;2023-05-07T01:03:35;39.20;;;36.47;;
12660;SDS011;39039;51.802;5.710;2023-05-07T01:06:04;32.60;;;30.27;;
12660;SDS011;39039;51.802;5.710;2023-05-07T01:08:32;31.53;;;29.23;;
12660;SDS011;39039;51.802;5.710;2023-05-07T01:11:01;37.37;;;34.73;;
12660;SDS011;39039;51.802;5.710;2023-05-07T01:13:28;31.03;;;28.83;;
12660;SDS011;39039;51.802;5.710;2023-05-07T01:15:56;29.23;;;27.43;;
12660;SDS011;39039;51.802;5.710;2023-05-07T01:18:23;32.63;;;30.20;;
12660;SDS011;39039;51.802;5.710;2023-05-07T01:20:51;29.70;;;27.70;;
12660;SDS011;39039;51.802;5.710;2023-05-07T01:23:19;28.87;;;26.97;;
12660;SDS011;39039;51.802;5.710;2023-05-07T01:25:50;28.07;;;26.23;;
12660;SDS011;39039;51.802;5.710;2023-05-07T01:28:18;33.13;;;30.53;;
12660;SDS011;39039;51.802;5.710;2023-05-07T01:30:46;30.70;;;28.63;;
12660;SDS011;39039;51.802;5.710;2023-05-07T01:33:13;31.87;;;29.77;;
12660;SDS011;39039;51.802;5.710;2023-05-07T01:35:43;31.07;;;28.97;;
12660;SDS011;39039;51.802;5.710;2023-05-07T01:38:12;34.87;;;32.63;;
12660;SDS011;39039;51.802;5.710;2023-05-07T01:40:41;34.30;;;32.03;;
12660;SDS011;39039;51.802;5.710;2023-05-07T01:43:08;31.50;;;29.33;;
12660;SDS011;39039;51.802;5.710;2023-05-07T01:45:36;32.20;;;30.00;;
12660;SDS011;39039;51.802;5.710;2023-05-07T01:48:03;34.87;;;32.13;;
12660;SDS011;39039;51.802;5.710;2023-05-07T01:50:30;39.07;;;36.07;;
12660;SDS011;39039;51.802;5.710;2023-05-07T01:52:58;36.83;;;34.00;;
12660;SDS011;39039;51.802;5.710;2023-05-07T01:55:25;35.93;;;33.17;;
12660;SDS011;39039;51.802;5.710;2023-05-07T01:57:53;40.33;;;37.17;;
12660;SDS011;39039;51.802;5.710;2023-05-07T02:00:21;38.17;;;34.90;;
12660;SDS011;39039;51.802;5.710;2023-05-07T02:02:48;35.77;;;33.13;;
12660;SDS011;39039;51.802;5.710;2023-05-07T02:05:15;42.97;;;39.63;;
12660;SDS011;39039;51.802;5.710;2023-05-07T02:07:42;44.10;;;40.43;;
12660;SDS011;39039;51.802;5.710;2023-05-07T02:10:09;41.23;;;38.17;;
12660;SDS011;39039;51.802;5.710;2023-05-07T02:12:36;42.27;;;39.10;;
12660;SDS011;39039;51.802;5.710;2023-05-07T02:15:05;47.00;;;43.40;;
12660;SDS011;39039;51.802;5.710;2023-05-07T02:17:32;42.40;;;38.90;;
12660;SDS011;39039;51.802;5.710;2023-05-07T02:20:00;46.93;;;42.83;;
12660;SDS011;39039;51.802;5.710;2023-05-07T02:22:28;41.40;;;38.27;;
12660;SDS011;39039;51.802;5.710;2023-05-07T02:24:55;39.73;;;36.50;;
12660;SDS011;39039;51.802;5.710;2023-05-07T02:27:22;44.50;;;40.90;;
12660;SDS011;39039;51.802;5.710;2023-05-07T02:29:49;44.13;;;40.33;;
12660;SDS011;39039;51.802;5.710;2023-05-07T02:32:18;41.53;;;38.00;;
12660;SDS011;39039;51.802;5.710;2023-05-07T02:34:45;49.33;;;45.23;;
12660;SDS011;39039;51.802;5.710;2023-05-07T02:37:12;50.27;;;46.03;;
12660;SDS011;39039;51.802;5.710;2023-05-07T02:39:39;47.80;;;43.73;;
12660;SDS011;39039;51.802;5.710;2023-05-07T02:42:06;54.90;;;50.03;;
12660;SDS011;39039;51.802;5.710;2023-05-07T02:44:33;52.40;;;47.83;;
12660;SDS011;39039;51.802;5.710;2023-05-07T02:47:00;48.43;;;44.33;;
12660;SDS011;39039;51.802;5.710;2023-05-07T02:49:29;47.43;;;43.43;;
12660;SDS011;39039;51.802;5.710;2023-05-07T02:51:56;47.23;;;43.07;;
12660;SDS011;39039;51.802;5.710;2023-05-07T02:54:23;49.43;;;45.07;;
12660;SDS011;39039;51.802;5.710;2023-05-07T02:56:49;51.07;;;46.23;;
12660;SDS011;39039;51.802;5.710;2023-05-07T02:59:16;56.87;;;51.40;;
12660;SDS011;39039;51.802;5.710;2023-05-07T03:01:43;57.30;;;52.57;;
12660;SDS011;39039;51.802;5.710;2023-05-07T03:04:11;57.43;;;52.33;;
12660;SDS011;39039;51.802;5.710;2023-05-07T03:06:39;46.27;;;41.87;;
12660;SDS011;39039;51.802;5.710;2023-05-07T03:09:06;48.53;;;44.03;;
12660;SDS011;39039;51.802;5.710;2023-05-07T03:11:33;45.50;;;41.70;;
12660;SDS011;39039;51.802;5.710;2023-05-07T03:14:01;50.20;;;46.00;;
12660;SDS011;39039;51.802;5.710;2023-05-07T03:16:28;47.47;;;43.43;;
12660;SDS011;39039;51.802;5.710;2023-05-07T03:18:56;58.93;;;52.30;;
12660;SDS011;39039;51.802;5.710;2023-05-07T03:21:23;46.87;;;42.70;;
12660;SDS011;39039;51.802;5.710;2023-05-07T03:23:52;51.70;;;47.10;;
12660;SDS011;39039;51.802;5.710;2023-05-07T03:26:19;49.27;;;44.77;;
12660;SDS011;39039;51.802;5.710;2023-05-07T03:28:46;55.80;;;50.83;;
12660;SDS011;39039;51.802;5.710;2023-05-07T03:31:13;60.93;;;55.20;;
12660;SDS011;39039;51.802;5.710;2023-05-07T03:33:49;53.20;;;48.33;;
12660;SDS011;39039;51.802;5.710;2023-05-07T03:36:16;50.30;;;46.07;;
12660;SDS011;39039;51.802;5.710;2023-05-07T03:38:44;56.77;;;51.43;;
12660;SDS011;39039;51.802;5.710;2023-05-07T03:41:12;51.63;;;47.57;;
12660;SDS011;39039;51.802;5.710;2023-05-07T03:43:39;55.87;;;50.50;;
12660;SDS011;39039;51.802;5.710;2023-05-07T03:46:06;57.30;;;52.03;;
12660;SDS011;39039;51.802;5.710;2023-05-07T03:48:33;47.00;;;43.20;;
12660;SDS011;39039;51.802;5.710;2023-05-07T03:51:00;56.87;;;51.63;;
12660;SDS011;39039;51.802;5.710;2023-05-07T03:53:27;53.47;;;48.80;;
12660;SDS011;39039;51.802;5.710;2023-05-07T03:55:54;64.27;;;57.80;;
12660;SDS011;39039;51.802;5.710;2023-05-07T03:58:22;54.77;;;50.23;;
12660;SDS011;39039;51.802;5.710;2023-05-07T04:00:50;61.10;;;56.03;;
12660;SDS011;39039;51.802;5.710;2023-05-07T04:03:17;65.30;;;59.40;;
12660;SDS011;39039;51.802;5.710;2023-05-07T04:05:44;63.63;;;57.53;;
12660;SDS011;39039;51.802;5.710;2023-05-07T04:08:11;78.03;;;67.63;;
12660;SDS011;39039;51.802;5.710;2023-05-07T04:10:38;62.63;;;56.47;;
12660;SDS011;39039;51.802;5.710;2023-05-07T04:13:05;73.07;;;65.83;;
12660;SDS011;39039;51.802;5.710;2023-05-07T04:15:33;66.80;;;60.47;;
12660;SDS011;39039;51.802;5.710;2023-05-07T04:18:01;70.23;;;62.77;;
12660;SDS011;39039;51.802;5.710;2023-05-07T04:20:29;70.13;;;63.00;;
12660;SDS011;39039;51.802;5.710;2023-05-07T04:22:56;70.20;;;63.87;;
12660;SDS011;39039;51.802;5.710;2023-05-07T04:25:23;69.33;;;62.27;;
12660;SDS011;39039;51.802;5.710;2023-05-07T04:27:51;66.10;;;60.00;;
12660;SDS011;39039;51.802;5.710;2023-05-07T04:30:18;67.17;;;61.20;;
12660;SDS011;39039;51.802;5.710;2023-05-07T04:32:47;62.13;;;56.23;;
12660;SDS011;39039;51.802;5.710;2023-05-07T04:35:14;66.37;;;60.27;;
12660;SDS011;39039;51.802;5.710;2023-05-07T04:37:40;68.77;;;62.10;;
12660;SDS011;39039;51.802;5.710;2023-05-07T04:40:08;64.70;;;58.87;;
12660;SDS011;39039;51.802;5.710;2023-05-07T04:42:35;64.37;;;58.53;;
12660;SDS011;39039;51.802;5.710;2023-05-07T04:45:02;65.73;;;59.77;;
12660;SDS011;39039;51.802;5.710;2023-05-07T04:47:29;61.90;;;56.30;;
12660;SDS011;39039;51.802;5.710;2023-05-07T04:49:58;65.27;;;59.07;;
12660;SDS011;39039;51.802;5.710;2023-05-07T04:52:25;64.97;;;58.57;;
12660;SDS011;39039;51.802;5.710;2023-05-07T04:54:52;65.90;;;59.73;;
12660;SDS011;39039;51.802;5.710;2023-05-07T04:57:19;62.10;;;56.03;;
12660;SDS011;39039;51.802;5.710;2023-05-07T04:59:46;63.93;;;57.93;;
12660;SDS011;39039;51.802;5.710;2023-05-07T05:02:14;65.70;;;59.80;;
12660;SDS011;39039;51.802;5.710;2023-05-07T05:04:41;68.90;;;62.30;;
12660;SDS011;39039;51.802;5.710;2023-05-07T05:07:09;72.10;;;65.93;;
12660;SDS011;39039;51.802;5.710;2023-05-07T05:09:36;69.13;;;62.57;;
12660;SDS011;39039;51.802;5.710;2023-05-07T05:12:04;62.90;;;57.50;;
12660;SDS011;39039;51.802;5.710;2023-05-07T05:14:32;60.87;;;55.77;;
12660;SDS011;39039;51.802;5.710;2023-05-07T05:16:59;69.43;;;63.43;;
12660;SDS011;39039;51.802;5.710;2023-05-07T05:19:26;70.60;;;64.60;;
12660;SDS011;39039;51.802;5.710;2023-05-07T05:21:53;69.13;;;63.23;;
12660;SDS011;39039;51.802;5.710;2023-05-07T05:24:22;66.93;;;60.80;;
12660;SDS011;39039;51.802;5.710;2023-05-07T05:26:51;71.67;;;65.27;;
12660;SDS011;39039;51.802;5.710;2023-05-07T05:29:19;68.40;;;62.67;;
12660;SDS011;39039;51.802;5.710;2023-05-07T05:31:46;59.50;;;54.33;;
12660;SDS011;39039;51.802;5.710;2023-05-07T05:34:13;70.27;;;64.63;;
12660;SDS011;39039;51.802;5.710;2023-05-07T05:36:40;62.17;;;56.80;;
12660;SDS011;39039;51.802;5.710;2023-05-07T05:39:07;68.13;;;62.40;;
12660;SDS011;39039;51.802;5.710;2023-05-07T05:41:36;64.53;;;58.97;;
12660;SDS011;39039;51.802;5.710;2023-05-07T05:44:03;66.00;;;60.47;;
12660;SDS011;39039;51.802;5.710;2023-05-07T05:46:30;61.00;;;55.43;;
12660;SDS011;39039;51.802;5.710;2023-05-07T05:48:57;61.73;;;56.63;;
12660;SDS011;39039;51.802;5.710;2023-05-07T05:51:24;55.87;;;51.30;;
12660;SDS011;39039;51.802;5.710;2023-05-07T05:53:51;55.87;;;50.87;;
12660;SDS011;39039;51.802;5.710;2023-05-07T05:56:18;50.90;;;46.20;;
12660;SDS011;39039;51.802;5.710;2023-05-07T05:58:47;51.70;;;47.33;;
12660;SDS011;39039;51.802;5.710;2023-05-07T06:01:14;57.87;;;52.90;;
12660;SDS011;39039;51.802;5.710;2023-05-07T06:03:41;55.63;;;50.40;;
12660;SDS011;39039;51.802;5.710;2023-05-07T06:06:08;59.17;;;53.97;;
12660;SDS011;39039;51.802;5.710;2023-05-07T06:08:35;54.93;;;50.37;;
12660;SDS011;39039;51.802;5.710;2023-05-07T06:11:02;62.20;;;57.13;;
12660;SDS011;39039;51.802;5.710;2023-05-07T06:13:30;51.50;;;47.30;;
12660;SDS011;39039;51.802;5.710;2023-05-07T06:15:59;47.10;;;43.17;;
12660;SDS011;39039;51.802;5.710;2023-05-07T06:18:26;49.37;;;45.37;;
12660;SDS011;39039;51.802;5.710;2023-05-07T06:20:53;50.30;;;46.33;;
12660;SDS011;39039;51.802;5.710;2023-05-07T06:23:20;47.13;;;43.30;;
12660;SDS011;39039;51.802;5.710;2023-05-07T06:25:48;58.00;;;53.50;;
12660;SDS011;39039;51.802;5.710;2023-05-07T06:28:16;52.20;;;47.80;;
12660;SDS011;39039;51.802;5.710;2023-05-07T06:30:43;54.00;;;49.70;;
12660;SDS011;39039;51.802;5.710;2023-05-07T06:33:11;51.57;;;47.33;;
12660;SDS011;39039;51.802;5.710;2023-05-07T06:35:38;48.43;;;44.40;;
12660;SDS011;39039;51.802;5.710;2023-05-07T06:38:05;51.70;;;47.50;;
12660;SDS011;39039;51.802;5.710;2023-05-07T06:40:32;52.27;;;48.20;;
12660;SDS011;39039;51.802;5.710;2023-05-07T06:42:59;53.77;;;49.20;;
12660;SDS011;39039;51.802;5.710;2023-05-07T06:45:26;48.40;;;44.60;;
12660;SDS011;39039;51.802;5.710;2023-05-07T06:47:53;54.03;;;49.93;;
12660;SDS011;39039;51.802;5.710;2023-05-07T06:50:22;54.03;;;49.80;;
12660;SDS011;39039;51.802;5.710;2023-05-07T06:52:49;48.00;;;43.93;;
12660;SDS011;39039;51.802;5.710;2023-05-07T06:55:16;45.47;;;41.67;;
12660;SDS011;39039;51.802;5.710;2023-05-07T06:57:44;48.07;;;44.10;;
12660;SDS011;39039;51.802;5.710;2023-05-07T07:00:11;46.37;;;42.87;;
12660;SDS011;39039;51.802;5.710;2023-05-07T07:02:39;50.42;;;46.40;;
12660;SDS011;39039;51.802;5.710;2023-05-07T07:05:06;44.22;;;40.55;;
12660;SDS011;39039;51.802;5.710;2023-05-07T07:07:35;50.55;;;46.67;;
12660;SDS011;39039;51.802;5.710;2023-05-07T07:10:02;43.35;;;40.05;;
12660;SDS011;39039;51.802;5.710;2023-05-07T07:12:29;52.83;;;49.10;;
12660;SDS011;39039;51.802;5.710;2023-05-07T07:14:56;42.93;;;39.83;;
12660;SDS011;39039;51.802;5.710;2023-05-07T07:17:23;42.78;;;39.67;;
12660;SDS011;39039;51.802;5.710;2023-05-07T07:19:50;41.15;;;38.17;;
12660;SDS011;39039;51.802;5.710;2023-05-07T07:22:18;44.03;;;40.92;;
12660;SDS011;39039;51.802;5.710;2023-05-07T07:24:46;44.25;;;41.05;;
12660;SDS011;39039;51.802;5.710;2023-05-07T07:27:13;46.25;;;42.97;;
12660;SDS011;39039;51.802;5.710;2023-05-07T07:29:40;42.70;;;39.58;;
12660;SDS011;39039;51.802;5.710;2023-05-07T07:32:07;44.83;;;41.83;;
12660;SDS011;39039;51.802;5.710;2023-05-07T07:34:34;43.90;;;40.67;;
12660;SDS011;39039;51.802;5.710;2023-05-07T07:37:01;47.45;;;44.15;;
12660;SDS011;39039;51.802;5.710;2023-05-07T07:39:31;39.60;;;36.50;;
12660;SDS011;39039;51.802;5.710;2023-05-07T07:41:59;40.88;;;37.72;;
12660;SDS011;39039;51.802;5.710;2023-05-07T07:44:26;41.28;;;37.97;;
12660;SDS011;39039;51.802;5.710;2023-05-07T07:46:53;41.50;;;38.50;;
12660;SDS011;39039;51.802;5.710;2023-05-07T07:49:20;44.15;;;41.00;;
12660;SDS011;39039;51.802;5.710;2023-05-07T07:51:48;41.90;;;38.75;;
12660;SDS011;39039;51.802;5.710;2023-05-07T07:54:16;40.08;;;37.08;;
12660;SDS011;39039;51.802;5.710;2023-05-07T07:56:43;43.58;;;40.33;;
12660;SDS011;39039;51.802;5.710;2023-05-07T07:59:11;43.35;;;40.15;;
12660;SDS011;39039;51.802;5.710;2023-05-07T08:01:38;38.28;;;35.58;;
12660;SDS011;39039;51.802;5.710;2023-05-07T08:04:05;37.22;;;34.45;;
12660;SDS011;39039;51.802;5.710;2023-05-07T08:06:32;37.00;;;34.42;;
12660;SDS011;39039;51.802;5.710;2023-05-07T08:08:59;39.10;;;36.22;;
12660;SDS011;39039;51.802;5.710;2023-05-07T08:11:27;38.85;;;36.05;;
12660;SDS011;39039;51.802;5.710;2023-05-07T08:13:54;35.70;;;33.13;;
12660;SDS011;39039;51.802;5.710;2023-05-07T08:16:23;36.67;;;33.97;;
12660;SDS011;39039;51.802;5.710;2023-05-07T08:18:50;38.50;;;35.85;;
12660;SDS011;39039;51.802;5.710;2023-05-07T08:21:17;43.20;;;40.13;;
12660;SDS011;39039;51.802;5.710;2023-05-07T08:23:44;32.45;;;30.00;;
12660;SDS011;39039;51.802;5.710;2023-05-07T08:26:11;33.90;;;31.60;;
12660;SDS011;39039;51.802;5.710;2023-05-07T08:28:38;31.80;;;29.60;;
12660;SDS011;39039;51.802;5.710;2023-05-07T08:31:05;33.22;;;30.63;;
12660;SDS011;39039;51.802;5.710;2023-05-07T08:33:33;31.13;;;28.92;;
12660;SDS011;39039;51.802;5.710;2023-05-07T08:36:01;27.70;;;25.63;;
12660;SDS011;39039;51.802;5.710;2023-05-07T08:38:28;28.00;;;25.70;;
12660;SDS011;39039;51.802;5.710;2023-05-07T08:40:55;26.60;;;24.60;;
12660;SDS011;39039;51.802;5.710;2023-05-07T08:43:22;27.27;;;25.30;;
12660;SDS011;39039;51.802;5.710;2023-05-07T08:45:53;28.63;;;26.58;;
12660;SDS011;39039;51.802;5.710;2023-05-07T08:48:21;33.28;;;30.85;;
12660;SDS011;39039;51.802;5.710;2023-05-07T08:50:52;31.95;;;29.48;;
12660;SDS011;39039;51.802;5.710;2023-05-07T08:53:20;32.85;;;30.48;;
12660;SDS011;39039;51.802;5.710;2023-05-07T08:55:47;32.78;;;30.55;;
12660;SDS011;39039;51.802;5.710;2023-05-07T08:58:14;29.20;;;27.10;;
12660;SDS011;39039;51.802;5.710;2023-05-07T09:00:41;25.70;;;23.80;;
12660;SDS011;39039;51.802;5.710;2023-05-07T09:03:08;25.08;;;23.27;;
12660;SDS011;39039;51.802;5.710;2023-05-07T09:05:37;26.65;;;24.83;;
12660;SDS011;39039;51.802;5.710;2023-05-07T09:08:06;24.13;;;22.45;;
12660;SDS011;39039;51.802;5.710;2023-05-07T09:10:33;24.25;;;22.55;;
12660;SDS011;39039;51.802;5.710;2023-05-07T09:13:00;31.13;;;29.02;;
12660;SDS011;39039;51.802;5.710;2023-05-07T09:15:28;24.70;;;23.08;;
12660;SDS011;39039;51.802;5.710;2023-05-07T09:17:58;27.58;;;25.77;;
12660;SDS011;39039;51.802;5.710;2023-05-07T09:20:27;36.30;;;34.03;;
12660;SDS011;39039;51.802;5.710;2023-05-07T09:22:55;37.47;;;35.10;;
12660;SDS011;39039;51.802;5.710;2023-05-07T09:25:28;28.55;;;26.67;;
12660;SDS011;39039;51.802;5.710;2023-05-07T09:27:56;24.50;;;22.98;;
12660;SDS011;39039;51.802;5.710;2023-05-07T09:30:23;24.60;;;22.63;;
12660;SDS011;39039;51.802;5.710;2023-05-07T09:32:53;28.52;;;26.73;;
12660;SDS011;39039;51.802;5.710;2023-05-07T09:35:21;28.95;;;27.15;;
12660;SDS011;39039;51.802;5.710;2023-05-07T09:37:49;31.23;;;29.00;;
12660;SDS011;39039;51.802;5.710;2023-05-07T09:40:22;27.15;;;25.50;;
12660;SDS011;39039;51.802;5.710;2023-05-07T09:42:51;49.42;;;46.53;;
12660;SDS011;39039;51.802;5.710;2023-05-07T09:45:21;33.97;;;31.77;;
12660;SDS011;39039;51.802;5.710;2023-05-07T09:47:49;33.95;;;31.98;;
12660;SDS011;39039;51.802;5.710;2023-05-07T09:50:17;26.25;;;24.55;;
12660;SDS011;39039;51.802;5.710;2023-05-07T09:52:45;29.95;;;27.90;;
12660;SDS011;39039;51.802;5.710;2023-05-07T09:55:12;25.60;;;24.00;;
12660;SDS011;39039;51.802;5.710;2023-05-07T09:57:39;27.13;;;25.42;;
12660;SDS011;39039;51.802;5.710;2023-05-07T10:00:08;26.58;;;24.85;;
12660;SDS011;39039;51.802;5.710;2023-05-07T10:02:37;25.77;;;24.17;;
12660;SDS011;39039;51.802;5.710;2023-05-07T10:05:11;26.10;;;24.40;;
12660;SDS011;39039;51.802;5.710;2023-05-07T10:07:39;22.27;;;20.95;;
12660;SDS011;39039;51.802;5.710;2023-05-07T10:10:07;22.33;;;20.75;;
12660;SDS011;39039;51.802;5.710;2023-05-07T10:12:34;18.33;;;17.23;;
12660;SDS011;39039;51.802;5.710;2023-05-07T10:15:05;20.17;;;18.88;;
12660;SDS011;39039;51.802;5.710;2023-05-07T10:17:34;26.90;;;25.10;;
12660;SDS011;39039;51.802;5.710;2023-05-07T10:20:02;30.98;;;29.08;;
12660;SDS011;39039;51.802;5.710;2023-05-07T10:22:30;29.45;;;27.25;;
12660;SDS011;39039;51.802;5.710;2023-05-07T10:24:59;31.63;;;29.90;;
12660;SDS011;39039;51.802;5.710;2023-05-07T10:27:29;31.70;;;29.60;;
12660;SDS011;39039;51.802;5.710;2023-05-07T10:30:00;28.98;;;27.27;;
12660;SDS011;39039;51.802;5.710;2023-05-07T10:32:35;30.10;;;28.23;;
12660;SDS011;39039;51.802;5.710;2023-05-07T10:35:06;30.17;;;28.38;;
12660;SDS011;39039;51.802;5.710;2023-05-07T10:37:36;24.88;;;23.38;;
12660;SDS011;39039;51.802;5.710;2023-05-07T10:40:04;54.00;;;50.85;;
12660;SDS011;39039;51.802;5.710;2023-05-07T10:42:32;25.15;;;23.60;;
12660;SDS011;39039;51.802;5.710;2023-05-07T10:45:11;23.00;;;21.50;;
12660;SDS011;39039;51.802;5.710;2023-05-07T10:50:22;28.02;;;26.33;;
12660;SDS011;39039;51.802;5.710;2023-05-07T10:55:35;23.27;;;21.77;;
12660;SDS011;39039;51.802;5.710;2023-05-07T11:00:45;26.13;;;24.33;;
12660;SDS011;39039;51.802;5.710;2023-05-07T11:03:12;26.67;;;25.08;;
12660;SDS011;39039;51.802;5.710;2023-05-07T11:05:41;29.85;;;27.88;;
12660;SDS011;39039;51.802;5.710;2023-05-07T11:08:09;30.55;;;28.55;;
12660;SDS011;39039;51.802;5.710;2023-05-07T11:13:18;26.90;;;25.10;;
12660;SDS011;39039;51.802;5.710;2023-05-07T11:15:46;25.05;;;23.25;;
12660;SDS011;39039;51.802;5.710;2023-05-07T11:18:14;23.50;;;21.88;;
12660;SDS011;39039;51.802;5.710;2023-05-07T11:20:53;24.63;;;23.13;;
12660;SDS011;39039;51.802;5.710;2023-05-07T11:26:06;21.42;;;20.13;;
12660;SDS011;39039;51.802;5.710;2023-05-07T11:28:36;20.52;;;19.15;;
12660;SDS011;39039;51.802;5.710;2023-05-07T11:31:03;23.67;;;22.27;;
12660;SDS011;39039;51.802;5.710;2023-05-07T11:33:30;22.58;;;21.08;;
12660;SDS011;39039;51.802;5.710;2023-05-07T11:35:59;22.38;;;20.77;;
12660;SDS011;39039;51.802;5.710;2023-05-07T11:38:26;19.00;;;17.80;;
12660;SDS011;39039;51.802;5.710;2023-05-07T11:40:55;23.40;;;21.90;;
12660;SDS011;39039;51.802;5.710;2023-05-07T11:43:24;25.58;;;23.92;;
12660;SDS011;39039;51.802;5.710;2023-05-07T11:45:51;20.33;;;19.02;;
12660;SDS011;39039;51.802;5.710;2023-05-07T11:48:18;28.52;;;26.70;;
12660;SDS011;39039;51.802;5.710;2023-05-07T11:50:50;21.63;;;20.33;;
12660;SDS011;39039;51.802;5.710;2023-05-07T11:53:19;22.77;;;21.27;;
12660;SDS011;39039;51.802;5.710;2023-05-07T11:55:46;18.75;;;17.45;;
12660;SDS011;39039;51.802;5.710;2023-05-07T11:58:18;24.65;;;22.75;;
12660;SDS011;39039;51.802;5.710;2023-05-07T12:00:50;24.13;;;22.58;;
12660;SDS011;39039;51.802;5.710;2023-05-07T12:03:17;22.15;;;20.73;;
12660;SDS011;39039;51.802;5.710;2023-05-07T12:05:44;18.42;;;17.17;;
12660;SDS011;39039;51.802;5.710;2023-05-07T12:08:13;24.00;;;22.40;;
12660;SDS011;39039;51.802;5.710;2023-05-07T12:10:41;24.67;;;22.88;;
12660;SDS011;39039;51.802;5.710;2023-05-07T12:13:13;24.60;;;22.98;;
12660;SDS011;39039;51.802;5.710;2023-05-07T12:15:41;26.55;;;24.75;;
12660;SDS011;39039;51.802;5.710;2023-05-07T12:18:09;27.63;;;25.98;;
12660;SDS011;39039;51.802;5.710;2023-05-07T12:20:36;24.65;;;23.02;;
12660;SDS011;39039;51.802;5.710;2023-05-07T12:23:03;26.75;;;24.98;;
12660;SDS011;39039;51.802;5.710;2023-05-07T12:25:30;26.27;;;24.50;;
12660;SDS011;39039;51.802;5.710;2023-05-07T12:28:01;28.92;;;27.02;;
12660;SDS011;39039;51.802;5.710;2023-05-07T12:30:29;27.48;;;25.67;;
12660;SDS011;39039;51.802;5.710;2023-05-07T12:32:57;27.40;;;25.63;;
12660;SDS011;39039;51.802;5.710;2023-05-07T12:35:27;25.33;;;23.73;;
12660;SDS011;39039;51.802;5.710;2023-05-07T12:37:54;24.50;;;22.92;;
12660;SDS011;39039;51.802;5.710;2023-05-07T12:40:24;24.77;;;23.17;;
12660;SDS011;39039;51.802;5.710;2023-05-07T12:42:52;26.60;;;24.80;;
12660;SDS011;39039;51.802;5.710;2023-05-07T12:45:22;24.85;;;23.25;;
12660;SDS011;39039;51.802;5.710;2023-05-07T12:47:49;33.70;;;31.75;;
12660;SDS011;39039;51.802;5.710;2023-05-07T12:50:16;29.20;;;27.33;;
12660;SDS011;39039;51.802;5.710;2023-05-07T12:52:43;27.60;;;25.90;;
12660;SDS011;39039;51.802;5.710;2023-05-07T12:55:12;27.52;;;25.83;;
12660;SDS011;39039;51.802;5.710;2023-05-07T12:57:40;25.65;;;23.95;;
12660;SDS011;39039;51.802;5.710;2023-05-07T13:00:08;28.77;;;26.75;;
12660;SDS011;39039;51.802;5.710;2023-05-07T13:02:38;27.55;;;25.58;;
12660;SDS011;39039;51.802;5.710;2023-05-07T13:05:06;26.20;;;24.70;;
12660;SDS011;39039;51.802;5.710;2023-05-07T13:07:33;24.73;;;23.17;;
12660;SDS011;39039;51.802;5.710;2023-05-07T13:10:00;28.00;;;26.30;;
12660;SDS011;39039;51.802;5.710;2023-05-07T13:12:27;31.60;;;29.50;;
12660;SDS011;39039;51.802;5.710;2023-05-07T13:14:54;26.58;;;24.88;;
12660;SDS011;39039;51.802;5.710;2023-05-07T13:17:21;30.00;;;28.20;;
12660;SDS011;39039;51.802;5.710;2023-05-07T13:19:49;28.73;;;26.73;;
12660;SDS011;39039;51.802;5.710;2023-05-07T13:22:16;28.95;;;27.05;;
12660;SDS011;39039;51.802;5.710;2023-05-07T13:24:43;39.70;;;37.08;;
12660;SDS011;39039;51.802;5.710;2023-05-07T13:27:10;35.42;;;33.05;;
12660;SDS011;39039;51.802;5.710;2023-05-07T13:29:37;35.17;;;32.92;;
12660;SDS011;39039;51.802;5.710;2023-05-07T13:32:04;30.80;;;28.70;;
12660;SDS011;39039;51.802;5.710;2023-05-07T13:34:31;30.65;;;28.35;;
12660;SDS011;39039;51.802;5.710;2023-05-07T13:37:00;32.35;;;29.75;;
12660;SDS011;39039;51.802;5.710;2023-05-07T13:39:27;35.22;;;32.67;;
12660;SDS011;39039;51.802;5.710;2023-05-07T13:41:54;32.03;;;29.70;;
12660;SDS011;39039;51.802;5.710;2023-05-07T13:44:21;31.80;;;29.50;;
12660;SDS011;39039;51.802;5.710;2023-05-07T13:46:48;31.48;;;29.13;;
12660;SDS011;39039;51.802;5.710;2023-05-07T13:49:16;36.13;;;33.47;;
12660;SDS011;39039;51.802;5.710;2023-05-07T13:51:43;32.40;;;30.10;;
12660;SDS011;39039;51.802;5.710;2023-05-07T13:54:11;31.15;;;28.88;;
12660;SDS011;39039;51.802;5.710;2023-05-07T13:56:38;31.63;;;29.27;;
12660;SDS011;39039;51.802;5.710;2023-05-07T13:59:05;31.25;;;29.05;;
12660;SDS011;39039;51.802;5.710;2023-05-07T14:01:32;31.38;;;29.13;;
12660;SDS011;39039;51.802;5.710;2023-05-07T14:03:59;28.52;;;26.42;;
12660;SDS011;39039;51.802;5.710;2023-05-07T14:06:26;30.05;;;27.80;;
12660;SDS011;39039;51.802;5.710;2023-05-07T14:08:53;29.85;;;27.65;;
12660;SDS011;39039;51.802;5.710;2023-05-07T14:11:24;29.05;;;26.95;;
12660;SDS011;39039;51.802;5.710;2023-05-07T14:13:51;28.05;;;25.65;;
12660;SDS011;39039;51.802;5.710;2023-05-07T14:16:18;27.35;;;25.33;;
12660;SDS011;39039;51.802;5.710;2023-05-07T14:18:45;25.98;;;24.00;;
12660;SDS011;39039;51.802;5.710;2023-05-07T14:21:12;24.02;;;22.38;;
12660;SDS011;39039;51.802;5.710;2023-05-07T14:23:39;23.85;;;22.58;;
12660;SDS011;39039;51.802;5.710;2023-05-07T14:26:06;25.15;;;23.75;;
12660;SDS011;39039;51.802;5.710;2023-05-07T14:28:35;19.88;;;18.88;;
12660;SDS011;39039;51.802;5.710;2023-05-07T14:31:04;21.48;;;20.48;;
12660;SDS011;39039;51.802;5.710;2023-05-07T14:33:31;18.02;;;17.13;;
12660;SDS011;39039;51.802;5.710;2023-05-07T14:35:58;17.17;;;16.27;;
12660;SDS011;39039;51.802;5.710;2023-05-07T14:38:26;16.70;;;15.25;;